sensor_id;sensor_type;location;lat;lon;timestamp;temperature;humidity
54576;DHT22;40472;53.486;14.542;2023-04-03T00:02:18;0.20;99.90
54576;DHT22;40472;53.486;14.542;2023-04-03T00:04:44;0.10;99.90
54576;DHT22;40472;53.486;14.542;2023-04-03T00:07:10;0.10;99.90
54576;DHT22;40472;53.486;14.542;2023-04-03T00:09:35;0.10;99.90
54576;DHT22;40472;53.486;14.542;2023-04-03T00:12:01;0.10;99.90
54576;DHT22;40472;53.486;14.542;2023-04-03T00:14:27;0.10;99.90
54576;DHT22;40472;53.486;14.542;2023-04-03T00:16:53;0.00;99.90
54576;DHT22;40472;53.486;14.542;2023-04-03T00:19:19;0.00;99.90
54576;DHT22;40472;53.486;14.542;2023-04-03T00:21:45;0.00;99.90
54576;DHT22;40472;53.486;14.542;2023-04-03T00:24:11;-0.10;99.90
54576;DHT22;40472;53.486;14.542;2023-04-03T00:26:36;0.00;99.90
54576;DHT22;40472;53.486;14.542;2023-04-03T00:29:02;0.10;99.90
54576;DHT22;40472;53.486;14.542;2023-04-03T00:31:28;0.10;99.90
54576;DHT22;40472;53.486;14.542;2023-04-03T00:33:54;0.10;99.90
54576;DHT22;40472;53.486;14.542;2023-04-03T00:36:20;0.10;99.90
54576;DHT22;40472;53.486;14.542;2023-04-03T00:38:46;0.10;99.90
54576;DHT22;40472;53.486;14.542;2023-04-03T00:41:12;0.10;99.90
54576;DHT22;40472;53.486;14.542;2023-04-03T00:43:37;0.10;99.90
54576;DHT22;40472;53.486;14.542;2023-04-03T00:46:03;0.10;99.90
54576;DHT22;40472;53.486;14.542;2023-04-03T00:48:32;0.00;99.90
54576;DHT22;40472;53.486;14.542;2023-04-03T00:51:00;0.10;99.90
54576;DHT22;40472;53.486;14.542;2023-04-03T00:53:40;0.00;99.90
54576;DHT22;40472;53.486;14.542;2023-04-03T00:56:09;0.00;99.90
54576;DHT22;40472;53.486;14.542;2023-04-03T00:58:50;0.00;99.90
54576;DHT22;40472;53.486;14.542;2023-04-03T01:01:21;0.10;99.90
54576;DHT22;40472;53.486;14.542;2023-04-03T01:03:48;0.10;99.90
54576;DHT22;40472;53.486;14.542;2023-04-03T01:06:17;0.10;99.90
54576;DHT22;40472;53.486;14.542;2023-04-03T01:08:48;0.10;99.90
54576;DHT22;40472;53.486;14.542;2023-04-03T01:11:15;0.10;99.90
54576;DHT22;40472;53.486;14.542;2023-04-03T01:13:41;0.10;99.90
54576;DHT22;40472;53.486;14.542;2023-04-03T01:16:13;0.10;99.90
54576;DHT22;40472;53.486;14.542;2023-04-03T01:18:40;0.10;99.90
54576;DHT22;40472;53.486;14.542;2023-04-03T01:24:26;0.10;99.90
54576;DHT22;40472;53.486;14.542;2023-04-03T01:26:53;0.10;99.90
54576;DHT22;40472;53.486;14.542;2023-04-03T01:29:19;0.20;99.90
54576;DHT22;40472;53.486;14.542;2023-04-03T01:31:56;0.20;99.90
54576;DHT22;40472;53.486;14.542;2023-04-03T01:34:23;0.10;99.90
54576;DHT22;40472;53.486;14.542;2023-04-03T01:36:49;0.10;99.90
54576;DHT22;40472;53.486;14.542;2023-04-03T01:39:16;0.20;99.90
54576;DHT22;40472;53.486;14.542;2023-04-03T01:41:43;0.10;99.90
54576;DHT22;40472;53.486;14.542;2023-04-03T01:44:09;0.10;99.90
54576;DHT22;40472;53.486;14.542;2023-04-03T01:46:35;0.10;99.90
54576;DHT22;40472;53.486;14.542;2023-04-03T01:49:01;0.10;99.90
54576;DHT22;40472;53.486;14.542;2023-04-03T01:51:27;0.10;99.90
54576;DHT22;40472;53.486;14.542;2023-04-03T01:53:53;0.10;99.90
54576;DHT22;40472;53.486;14.542;2023-04-03T01:56:19;0.10;99.90
54576;DHT22;40472;53.486;14.542;2023-04-03T01:58:45;0.00;99.90
54576;DHT22;40472;53.486;14.542;2023-04-03T02:01:11;0.00;99.90
54576;DHT22;40472;53.486;14.542;2023-04-03T02:06:15;0.00;99.90
54576;DHT22;40472;53.486;14.542;2023-04-03T02:08:41;0.00;99.90
54576;DHT22;40472;53.486;14.542;2023-04-03T02:11:07;0.00;99.90
54576;DHT22;40472;53.486;14.542;2023-04-03T02:13:33;0.00;99.90
54576;DHT22;40472;53.486;14.542;2023-04-03T02:15:58;-0.10;99.90
54576;DHT22;40472;53.486;14.542;2023-04-03T02:18:24;-0.10;99.90
54576;DHT22;40472;53.486;14.542;2023-04-03T02:20:50;-0.10;99.90
54576;DHT22;40472;53.486;14.542;2023-04-03T02:23:16;-0.10;99.90
54576;DHT22;40472;53.486;14.542;2023-04-03T02:25:41;-0.20;99.90
54576;DHT22;40472;53.486;14.542;2023-04-03T02:28:07;-0.10;99.90
54576;DHT22;40472;53.486;14.542;2023-04-03T02:30:33;-0.10;99.90
54576;DHT22;40472;53.486;14.542;2023-04-03T02:32:59;-0.10;99.90
54576;DHT22;40472;53.486;14.542;2023-04-03T02:35:25;-0.10;99.90
54576;DHT22;40472;53.486;14.542;2023-04-03T02:37:51;-0.10;99.90
54576;DHT22;40472;53.486;14.542;2023-04-03T02:40:17;-0.10;99.90
54576;DHT22;40472;53.486;14.542;2023-04-03T02:42:43;-0.10;99.90
54576;DHT22;40472;53.486;14.542;2023-04-03T02:45:09;-0.10;99.90
54576;DHT22;40472;53.486;14.542;2023-04-03T02:47:34;-0.10;99.90
54576;DHT22;40472;53.486;14.542;2023-04-03T02:50:00;-0.20;99.90
54576;DHT22;40472;53.486;14.542;2023-04-03T02:52:26;-0.10;99.90
54576;DHT22;40472;53.486;14.542;2023-04-03T02:54:51;-0.10;99.90
54576;DHT22;40472;53.486;14.542;2023-04-03T02:57:17;-0.10;99.90
54576;DHT22;40472;53.486;14.542;2023-04-03T02:59:45;-0.20;99.90
54576;DHT22;40472;53.486;14.542;2023-04-03T03:02:11;-0.20;99.90
54576;DHT22;40472;53.486;14.542;2023-04-03T03:04:36;-0.20;99.90
54576;DHT22;40472;53.486;14.542;2023-04-03T03:07:03;-0.20;99.90
54576;DHT22;40472;53.486;14.542;2023-04-03T03:09:29;-0.20;99.90
54576;DHT22;40472;53.486;14.542;2023-04-03T03:11:55;-0.20;99.90
54576;DHT22;40472;53.486;14.542;2023-04-03T03:14:21;-0.30;99.90
54576;DHT22;40472;53.486;14.542;2023-04-03T03:16:47;-0.30;99.90
54576;DHT22;40472;53.486;14.542;2023-04-03T03:19:13;-0.30;99.90
54576;DHT22;40472;53.486;14.542;2023-04-03T03:21:38;-0.30;99.90
54576;DHT22;40472;53.486;14.542;2023-04-03T03:24:04;-0.30;99.90
54576;DHT22;40472;53.486;14.542;2023-04-03T03:26:30;-0.30;99.90
54576;DHT22;40472;53.486;14.542;2023-04-03T03:28:56;-0.30;99.90
54576;DHT22;40472;53.486;14.542;2023-04-03T03:31:22;-0.40;99.90
54576;DHT22;40472;53.486;14.542;2023-04-03T03:33:48;-0.40;99.90
54576;DHT22;40472;53.486;14.542;2023-04-03T03:36:14;-0.40;99.90
54576;DHT22;40472;53.486;14.542;2023-04-03T03:38:40;-0.40;99.90
54576;DHT22;40472;53.486;14.542;2023-04-03T03:41:05;-0.40;99.90
54576;DHT22;40472;53.486;14.542;2023-04-03T03:43:31;-0.40;99.90
54576;DHT22;40472;53.486;14.542;2023-04-03T03:45:57;-0.40;99.90
54576;DHT22;40472;53.486;14.542;2023-04-03T03:48:23;-0.40;99.90
54576;DHT22;40472;53.486;14.542;2023-04-03T03:50:49;-0.40;99.90
54576;DHT22;40472;53.486;14.542;2023-04-03T03:53:15;-0.40;99.90
54576;DHT22;40472;53.486;14.542;2023-04-03T03:55:41;-0.40;99.90
54576;DHT22;40472;53.486;14.542;2023-04-03T03:58:07;-0.50;99.90
54576;DHT22;40472;53.486;14.542;2023-04-03T04:00:33;-0.50;99.90
54576;DHT22;40472;53.486;14.542;2023-04-03T04:02:59;-0.50;99.90
54576;DHT22;40472;53.486;14.542;2023-04-03T04:05:26;-0.60;99.90
54576;DHT22;40472;53.486;14.542;2023-04-03T04:07:51;-0.50;99.90
54576;DHT22;40472;53.486;14.542;2023-04-03T04:10:17;-0.50;99.90
54576;DHT22;40472;53.486;14.542;2023-04-03T04:12:43;-0.50;99.90
54576;DHT22;40472;53.486;14.542;2023-04-03T04:15:09;-0.50;99.90
54576;DHT22;40472;53.486;14.542;2023-04-03T04:17:35;-0.50;99.90
54576;DHT22;40472;53.486;14.542;2023-04-03T04:20:02;-0.50;99.90
54576;DHT22;40472;53.486;14.542;2023-04-03T04:22:30;-0.50;99.90
54576;DHT22;40472;53.486;14.542;2023-04-03T04:24:56;-0.60;99.90
54576;DHT22;40472;53.486;14.542;2023-04-03T04:27:21;-0.60;99.90
54576;DHT22;40472;53.486;14.542;2023-04-03T04:29:47;-0.60;99.90
54576;DHT22;40472;53.486;14.542;2023-04-03T04:32:13;-0.60;99.90
54576;DHT22;40472;53.486;14.542;2023-04-03T04:34:39;-0.50;99.90
54576;DHT22;40472;53.486;14.542;2023-04-03T04:37:05;-0.40;99.90
54576;DHT22;40472;53.486;14.542;2023-04-03T04:39:31;-0.30;99.90
54576;DHT22;40472;53.486;14.542;2023-04-03T04:41:56;-0.30;99.90
54576;DHT22;40472;53.486;14.542;2023-04-03T04:44:22;-0.10;99.90
54576;DHT22;40472;53.486;14.542;2023-04-03T04:46:48;-0.10;99.90
54576;DHT22;40472;53.486;14.542;2023-04-03T04:49:14;-0.10;99.90
54576;DHT22;40472;53.486;14.542;2023-04-03T04:51:40;-0.20;99.90
54576;DHT22;40472;53.486;14.542;2023-04-03T04:54:05;-0.30;99.90
54576;DHT22;40472;53.486;14.542;2023-04-03T04:56:31;-0.30;99.90
54576;DHT22;40472;53.486;14.542;2023-04-03T04:58:57;-0.40;99.90
54576;DHT22;40472;53.486;14.542;2023-04-03T05:01:22;-0.40;99.90
54576;DHT22;40472;53.486;14.542;2023-04-03T05:03:48;-0.40;99.90
54576;DHT22;40472;53.486;14.542;2023-04-03T05:06:14;-0.40;99.90
54576;DHT22;40472;53.486;14.542;2023-04-03T05:08:40;-0.40;99.90
54576;DHT22;40472;53.486;14.542;2023-04-03T05:11:06;-0.30;99.90
54576;DHT22;40472;53.486;14.542;2023-04-03T05:13:32;-0.40;99.90
54576;DHT22;40472;53.486;14.542;2023-04-03T05:15:57;-0.40;99.90
54576;DHT22;40472;53.486;14.542;2023-04-03T05:18:23;-0.40;99.90
54576;DHT22;40472;53.486;14.542;2023-04-03T05:20:50;-0.30;99.90
54576;DHT22;40472;53.486;14.542;2023-04-03T05:23:16;-0.30;99.90
54576;DHT22;40472;53.486;14.542;2023-04-03T05:25:42;-0.20;99.90
54576;DHT22;40472;53.486;14.542;2023-04-03T05:28:09;-0.20;99.90
54576;DHT22;40472;53.486;14.542;2023-04-03T05:30:35;-0.10;99.90
54576;DHT22;40472;53.486;14.542;2023-04-03T05:33:02;-0.10;99.90
54576;DHT22;40472;53.486;14.542;2023-04-03T05:35:27;0.00;99.90
54576;DHT22;40472;53.486;14.542;2023-04-03T05:37:53;0.10;99.90
54576;DHT22;40472;53.486;14.542;2023-04-03T05:40:19;0.10;99.90
54576;DHT22;40472;53.486;14.542;2023-04-03T05:42:45;0.20;99.90
54576;DHT22;40472;53.486;14.542;2023-04-03T05:45:11;0.30;99.90
54576;DHT22;40472;53.486;14.542;2023-04-03T05:47:37;0.40;99.90
54576;DHT22;40472;53.486;14.542;2023-04-03T05:50:03;0.40;99.90
54576;DHT22;40472;53.486;14.542;2023-04-03T05:52:32;0.50;99.90
54576;DHT22;40472;53.486;14.542;2023-04-03T05:54:58;0.50;99.90
54576;DHT22;40472;53.486;14.542;2023-04-03T05:57:24;0.60;99.90
54576;DHT22;40472;53.486;14.542;2023-04-03T05:59:50;0.80;99.90
54576;DHT22;40472;53.486;14.542;2023-04-03T06:02:19;0.90;99.90
54576;DHT22;40472;53.486;14.542;2023-04-03T06:04:45;1.00;99.90
54576;DHT22;40472;53.486;14.542;2023-04-03T06:07:15;1.10;99.90
54576;DHT22;40472;53.486;14.542;2023-04-03T06:09:42;1.20;99.90
54576;DHT22;40472;53.486;14.542;2023-04-03T06:12:08;1.20;99.90
54576;DHT22;40472;53.486;14.542;2023-04-03T06:14:34;1.20;99.90
54576;DHT22;40472;53.486;14.542;2023-04-03T06:17:01;1.20;99.90
54576;DHT22;40472;53.486;14.542;2023-04-03T06:19:27;1.40;99.90
54576;DHT22;40472;53.486;14.542;2023-04-03T06:21:53;1.50;99.90
54576;DHT22;40472;53.486;14.542;2023-04-03T06:24:20;1.40;99.90
54576;DHT22;40472;53.486;14.542;2023-04-03T06:26:48;1.50;99.90
54576;DHT22;40472;53.486;14.542;2023-04-03T06:29:17;1.60;99.90
54576;DHT22;40472;53.486;14.542;2023-04-03T06:31:43;1.50;99.90
54576;DHT22;40472;53.486;14.542;2023-04-03T06:34:09;1.60;99.90
54576;DHT22;40472;53.486;14.542;2023-04-03T06:36:36;1.60;99.90
54576;DHT22;40472;53.486;14.542;2023-04-03T06:39:02;1.70;99.90
54576;DHT22;40472;53.486;14.542;2023-04-03T06:41:29;1.80;99.90
54576;DHT22;40472;53.486;14.542;2023-04-03T06:43:55;1.80;99.90
54576;DHT22;40472;53.486;14.542;2023-04-03T06:46:25;2.00;99.90
54576;DHT22;40472;53.486;14.542;2023-04-03T06:48:52;2.00;99.90
54576;DHT22;40472;53.486;14.542;2023-04-03T06:51:23;2.10;99.90
54576;DHT22;40472;53.486;14.542;2023-04-03T06:53:50;2.10;99.90
54576;DHT22;40472;53.486;14.542;2023-04-03T06:56:17;2.00;99.90
54576;DHT22;40472;53.486;14.542;2023-04-03T06:58:43;2.10;99.90
54576;DHT22;40472;53.486;14.542;2023-04-03T07:01:10;2.10;99.90
54576;DHT22;40472;53.486;14.542;2023-04-03T07:03:37;2.10;99.90
54576;DHT22;40472;53.486;14.542;2023-04-03T07:06:04;2.20;99.90
54576;DHT22;40472;53.486;14.542;2023-04-03T07:08:31;2.30;99.90
54576;DHT22;40472;53.486;14.542;2023-04-03T07:10:57;2.40;99.90
54576;DHT22;40472;53.486;14.542;2023-04-03T07:13:23;2.30;99.90
54576;DHT22;40472;53.486;14.542;2023-04-03T07:15:49;2.50;99.90
54576;DHT22;40472;53.486;14.542;2023-04-03T07:18:16;2.60;99.90
54576;DHT22;40472;53.486;14.542;2023-04-03T07:20:42;2.70;99.90
54576;DHT22;40472;53.486;14.542;2023-04-03T07:23:08;2.80;99.90
54576;DHT22;40472;53.486;14.542;2023-04-03T07:25:34;2.70;99.90
54576;DHT22;40472;53.486;14.542;2023-04-03T07:28:00;2.90;99.90
54576;DHT22;40472;53.486;14.542;2023-04-03T07:30:27;2.90;99.90
54576;DHT22;40472;53.486;14.542;2023-04-03T07:32:53;2.90;99.90
54576;DHT22;40472;53.486;14.542;2023-04-03T07:35:19;2.90;99.90
54576;DHT22;40472;53.486;14.542;2023-04-03T07:37:45;2.90;99.90
54576;DHT22;40472;53.486;14.542;2023-04-03T07:40:12;2.90;99.90
54576;DHT22;40472;53.486;14.542;2023-04-03T07:42:38;2.90;99.90
54576;DHT22;40472;53.486;14.542;2023-04-03T07:45:04;2.80;99.90
54576;DHT22;40472;53.486;14.542;2023-04-03T07:47:30;2.90;99.90
54576;DHT22;40472;53.486;14.542;2023-04-03T07:49:57;3.00;99.90
54576;DHT22;40472;53.486;14.542;2023-04-03T07:52:24;3.00;99.90
54576;DHT22;40472;53.486;14.542;2023-04-03T07:54:50;3.10;99.90
54576;DHT22;40472;53.486;14.542;2023-04-03T07:57:16;3.10;99.90
54576;DHT22;40472;53.486;14.542;2023-04-03T07:59:42;3.00;99.90
54576;DHT22;40472;53.486;14.542;2023-04-03T08:02:12;3.00;99.90
54576;DHT22;40472;53.486;14.542;2023-04-03T08:04:38;3.10;99.90
54576;DHT22;40472;53.486;14.542;2023-04-03T08:07:04;2.90;99.90
54576;DHT22;40472;53.486;14.542;2023-04-03T08:09:31;2.90;99.90
54576;DHT22;40472;53.486;14.542;2023-04-03T08:11:58;2.90;99.90
54576;DHT22;40472;53.486;14.542;2023-04-03T08:14:24;2.70;99.90
54576;DHT22;40472;53.486;14.542;2023-04-03T08:16:50;2.70;99.90
54576;DHT22;40472;53.486;14.542;2023-04-03T08:19:17;2.50;99.90
54576;DHT22;40472;53.486;14.542;2023-04-03T08:21:44;2.60;99.90
54576;DHT22;40472;53.486;14.542;2023-04-03T08:24:11;2.60;99.90
54576;DHT22;40472;53.486;14.542;2023-04-03T08:26:37;2.50;99.90
54576;DHT22;40472;53.486;14.542;2023-04-03T08:29:03;2.50;99.90
54576;DHT22;40472;53.486;14.542;2023-04-03T08:34:38;2.40;99.90
54576;DHT22;40472;53.486;14.542;2023-04-03T08:37:07;2.40;99.90
54576;DHT22;40472;53.486;14.542;2023-04-03T08:39:33;2.40;99.90
54576;DHT22;40472;53.486;14.542;2023-04-03T08:42:00;2.50;99.90
54576;DHT22;40472;53.486;14.542;2023-04-03T08:44:55;2.50;99.90
54576;DHT22;40472;53.486;14.542;2023-04-03T08:47:42;2.50;99.90
54576;DHT22;40472;53.486;14.542;2023-04-03T08:50:18;2.70;99.90
54576;DHT22;40472;53.486;14.542;2023-04-03T08:52:48;2.80;99.90
54576;DHT22;40472;53.486;14.542;2023-04-03T08:58:04;2.90;99.90
54576;DHT22;40472;53.486;14.542;2023-04-03T09:03:56;3.20;99.90
54576;DHT22;40472;53.486;14.542;2023-04-03T09:06:26;3.20;99.90
54576;DHT22;40472;53.486;14.542;2023-04-03T09:16:56;3.40;99.90
54576;DHT22;40472;53.486;14.542;2023-04-03T09:22:03;3.70;99.90
54576;DHT22;40472;53.486;14.542;2023-04-03T09:24:31;4.00;99.90
54576;DHT22;40472;53.486;14.542;2023-04-03T09:27:08;4.30;99.90
54576;DHT22;40472;53.486;14.542;2023-04-03T09:29:41;4.30;99.90
54576;DHT22;40472;53.486;14.542;2023-04-03T09:32:21;4.30;99.90
54576;DHT22;40472;53.486;14.542;2023-04-03T09:34:52;4.20;99.90
54576;DHT22;40472;53.486;14.542;2023-04-03T09:37:42;4.00;99.90
54576;DHT22;40472;53.486;14.542;2023-04-03T09:43:00;3.50;99.90
54576;DHT22;40472;53.486;14.542;2023-04-03T09:53:38;3.60;99.90
54576;DHT22;40472;53.486;14.542;2023-04-03T09:58:50;3.50;99.90
54576;DHT22;40472;53.486;14.542;2023-04-03T10:01:32;3.40;99.90
54576;DHT22;40472;53.486;14.542;2023-04-03T10:04:16;3.20;99.90
54576;DHT22;40472;53.486;14.542;2023-04-03T10:06:45;3.30;99.90
54576;DHT22;40472;53.486;14.542;2023-04-03T10:14:34;3.40;99.90
54576;DHT22;40472;53.486;14.542;2023-04-03T10:23:28;3.20;99.90
54576;DHT22;40472;53.486;14.542;2023-04-03T10:26:23;3.20;99.90
54576;DHT22;40472;53.486;14.542;2023-04-03T10:29:09;3.20;99.90
54576;DHT22;40472;53.486;14.542;2023-04-03T10:31:43;3.20;99.90
54576;DHT22;40472;53.486;14.542;2023-04-03T10:34:37;3.30;99.90
54576;DHT22;40472;53.486;14.542;2023-04-03T10:46:03;4.40;99.90
54576;DHT22;40472;53.486;14.542;2023-04-03T10:48:46;4.80;99.90
54576;DHT22;40472;53.486;14.542;2023-04-03T10:56:39;4.90;99.90
54576;DHT22;40472;53.486;14.542;2023-04-03T10:59:26;4.70;99.90
54576;DHT22;40472;53.486;14.542;2023-04-03T11:01:59;4.60;99.90
54576;DHT22;40472;53.486;14.542;2023-04-03T11:04:28;4.30;99.90
54576;DHT22;40472;53.486;14.542;2023-04-03T11:07:11;4.20;99.90
54576;DHT22;40472;53.486;14.542;2023-04-03T11:09:42;4.00;99.90
54576;DHT22;40472;53.486;14.542;2023-04-03T11:14:41;3.70;99.90
54576;DHT22;40472;53.486;14.542;2023-04-03T11:22:32;3.40;99.90
54576;DHT22;40472;53.486;14.542;2023-04-03T11:35:55;4.30;99.90
54576;DHT22;40472;53.486;14.542;2023-04-03T11:38:31;4.50;99.90
54576;DHT22;40472;53.486;14.542;2023-04-03T11:41:00;4.60;99.90
54576;DHT22;40472;53.486;14.542;2023-04-03T11:43:31;4.60;99.90
54576;DHT22;40472;53.486;14.542;2023-04-03T11:46:02;4.40;99.90
54576;DHT22;40472;53.486;14.542;2023-04-03T11:50:55;3.90;99.90
54576;DHT22;40472;53.486;14.542;2023-04-03T12:16:32;4.00;99.90
54576;DHT22;40472;53.486;14.542;2023-04-03T12:19:01;3.90;99.90
54576;DHT22;40472;53.486;14.542;2023-04-03T12:27:05;4.00;99.90
54576;DHT22;40472;53.486;14.542;2023-04-03T12:40:53;4.60;99.90
54576;DHT22;40472;53.486;14.542;2023-04-03T12:46:17;4.90;99.90
54576;DHT22;40472;53.486;14.542;2023-04-03T12:48:55;5.00;99.90
54576;DHT22;40472;53.486;14.542;2023-04-03T12:51:59;5.00;99.90
54576;DHT22;40472;53.486;14.542;2023-04-03T12:54:38;5.20;99.90
54576;DHT22;40472;53.486;14.542;2023-04-03T12:57:18;5.40;99.90
54576;DHT22;40472;53.486;14.542;2023-04-03T12:59:44;4.90;99.90
54576;DHT22;40472;53.486;14.542;2023-04-03T13:02:30;4.90;99.90
54576;DHT22;40472;53.486;14.542;2023-04-03T13:05:17;4.90;99.90
54576;DHT22;40472;53.486;14.542;2023-04-03T13:07:44;4.70;99.90
54576;DHT22;40472;53.486;14.542;2023-04-03T13:10:17;4.50;99.90
54576;DHT22;40472;53.486;14.542;2023-04-03T13:12:50;4.30;99.90
54576;DHT22;40472;53.486;14.542;2023-04-03T13:17:48;4.20;99.90
54576;DHT22;40472;53.486;14.542;2023-04-03T13:20:29;4.00;99.90
54576;DHT22;40472;53.486;14.542;2023-04-03T13:22:56;3.80;99.90
54576;DHT22;40472;53.486;14.542;2023-04-03T13:25:24;3.60;99.90
54576;DHT22;40472;53.486;14.542;2023-04-03T13:27:51;3.60;99.90
54576;DHT22;40472;53.486;14.542;2023-04-03T13:30:33;3.70;99.90
54576;DHT22;40472;53.486;14.542;2023-04-03T13:33:01;3.70;99.90
54576;DHT22;40472;53.486;14.542;2023-04-03T13:35:38;3.90;99.90
54576;DHT22;40472;53.486;14.542;2023-04-03T13:38:23;4.10;99.90
54576;DHT22;40472;53.486;14.542;2023-04-03T13:40:52;4.30;99.90
54576;DHT22;40472;53.486;14.542;2023-04-03T13:43:33;4.20;99.90
54576;DHT22;40472;53.486;14.542;2023-04-03T13:46:24;4.10;99.90
54576;DHT22;40472;53.486;14.542;2023-04-03T13:48:52;3.90;99.90
54576;DHT22;40472;53.486;14.542;2023-04-03T13:51:23;3.80;99.90
54576;DHT22;40472;53.486;14.542;2023-04-03T13:53:58;4.20;99.90
54576;DHT22;40472;53.486;14.542;2023-04-03T13:56:36;4.60;99.90
54576;DHT22;40472;53.486;14.542;2023-04-03T13:59:23;4.80;99.90
54576;DHT22;40472;53.486;14.542;2023-04-03T14:04:32;4.40;99.90
54576;DHT22;40472;53.486;14.542;2023-04-03T14:06:59;4.10;99.90
54576;DHT22;40472;53.486;14.542;2023-04-03T14:09:26;4.00;99.90
54576;DHT22;40472;53.486;14.542;2023-04-03T14:12:00;3.80;99.90
54576;DHT22;40472;53.486;14.542;2023-04-03T14:14:32;3.70;99.90
54576;DHT22;40472;53.486;14.542;2023-04-03T14:17:01;3.70;99.90
54576;DHT22;40472;53.486;14.542;2023-04-03T14:19:30;3.70;99.90
54576;DHT22;40472;53.486;14.542;2023-04-03T14:21:57;3.70;99.90
54576;DHT22;40472;53.486;14.542;2023-04-03T14:24:24;3.80;99.90
54576;DHT22;40472;53.486;14.542;2023-04-03T14:26:51;3.90;99.90
54576;DHT22;40472;53.486;14.542;2023-04-03T14:29:18;3.90;99.90
54576;DHT22;40472;53.486;14.542;2023-04-03T14:31:48;4.10;99.90
54576;DHT22;40472;53.486;14.542;2023-04-03T14:34:15;4.20;99.90
54576;DHT22;40472;53.486;14.542;2023-04-03T14:36:42;4.30;99.90
54576;DHT22;40472;53.486;14.542;2023-04-03T14:39:16;4.40;99.90
54576;DHT22;40472;53.486;14.542;2023-04-03T14:41:42;4.50;99.90
54576;DHT22;40472;53.486;14.542;2023-04-03T14:44:08;4.40;99.90
54576;DHT22;40472;53.486;14.542;2023-04-03T14:46:39;4.30;99.90
54576;DHT22;40472;53.486;14.542;2023-04-03T14:49:17;4.40;99.90
54576;DHT22;40472;53.486;14.542;2023-04-03T14:51:44;4.40;99.90
54576;DHT22;40472;53.486;14.542;2023-04-03T14:54:16;4.40;99.90
54576;DHT22;40472;53.486;14.542;2023-04-03T14:56:42;4.30;99.90
54576;DHT22;40472;53.486;14.542;2023-04-03T14:59:11;4.10;99.90
54576;DHT22;40472;53.486;14.542;2023-04-03T15:01:37;4.00;99.90
54576;DHT22;40472;53.486;14.542;2023-04-03T15:04:15;3.80;99.90
54576;DHT22;40472;53.486;14.542;2023-04-03T15:06:42;3.80;99.90
54576;DHT22;40472;53.486;14.542;2023-04-03T15:09:27;3.80;99.90
54576;DHT22;40472;53.486;14.542;2023-04-03T15:11:55;3.80;99.90
54576;DHT22;40472;53.486;14.542;2023-04-03T15:14:21;3.80;99.90
54576;DHT22;40472;53.486;14.542;2023-04-03T15:16:48;3.80;99.90
54576;DHT22;40472;53.486;14.542;2023-04-03T15:19:14;3.80;99.90
54576;DHT22;40472;53.486;14.542;2023-04-03T15:21:40;3.90;99.90
54576;DHT22;40472;53.486;14.542;2023-04-03T15:24:06;4.00;99.90
54576;DHT22;40472;53.486;14.542;2023-04-03T15:26:32;3.90;99.90
54576;DHT22;40472;53.486;14.542;2023-04-03T15:28:58;3.80;99.90
54576;DHT22;40472;53.486;14.542;2023-04-03T15:31:24;3.80;99.90
54576;DHT22;40472;53.486;14.542;2023-04-03T15:33:50;3.70;99.90
54576;DHT22;40472;53.486;14.542;2023-04-03T15:36:16;3.90;99.90
54576;DHT22;40472;53.486;14.542;2023-04-03T15:38:42;4.10;99.90
54576;DHT22;40472;53.486;14.542;2023-04-03T15:41:08;4.50;99.90
54576;DHT22;40472;53.486;14.542;2023-04-03T15:43:34;4.70;99.90
54576;DHT22;40472;53.486;14.542;2023-04-03T15:46:01;4.90;99.90
54576;DHT22;40472;53.486;14.542;2023-04-03T15:48:28;4.90;99.90
54576;DHT22;40472;53.486;14.542;2023-04-03T15:50:54;4.50;99.90
54576;DHT22;40472;53.486;14.542;2023-04-03T15:53:20;4.20;99.90
54576;DHT22;40472;53.486;14.542;2023-04-03T15:55:46;4.00;99.90
54576;DHT22;40472;53.486;14.542;2023-04-03T15:58:12;4.00;99.90
54576;DHT22;40472;53.486;14.542;2023-04-03T16:00:38;3.70;99.90
54576;DHT22;40472;53.486;14.542;2023-04-03T16:03:16;3.60;99.90
54576;DHT22;40472;53.486;14.542;2023-04-03T16:05:42;3.50;99.90
54576;DHT22;40472;53.486;14.542;2023-04-03T16:08:08;3.40;99.90
54576;DHT22;40472;53.486;14.542;2023-04-03T16:10:36;3.30;99.90
54576;DHT22;40472;53.486;14.542;2023-04-03T16:13:02;3.30;99.90
54576;DHT22;40472;53.486;14.542;2023-04-03T16:15:29;3.30;99.90
54576;DHT22;40472;53.486;14.542;2023-04-03T16:17:57;3.20;99.90
54576;DHT22;40472;53.486;14.542;2023-04-03T16:20:24;3.20;99.90
54576;DHT22;40472;53.486;14.542;2023-04-03T16:22:50;3.20;99.90
54576;DHT22;40472;53.486;14.542;2023-04-03T16:25:17;3.20;99.90
54576;DHT22;40472;53.486;14.542;2023-04-03T16:27:43;3.20;99.90
54576;DHT22;40472;53.486;14.542;2023-04-03T16:30:09;3.20;99.90
54576;DHT22;40472;53.486;14.542;2023-04-03T16:32:37;3.20;99.90
54576;DHT22;40472;53.486;14.542;2023-04-03T16:35:04;3.20;99.90
54576;DHT22;40472;53.486;14.542;2023-04-03T16:37:30;3.10;99.90
54576;DHT22;40472;53.486;14.542;2023-04-03T16:39:56;3.00;99.90
54576;DHT22;40472;53.486;14.542;2023-04-03T16:42:24;3.10;99.90
54576;DHT22;40472;53.486;14.542;2023-04-03T16:44:50;3.00;99.90
54576;DHT22;40472;53.486;14.542;2023-04-03T16:47:16;3.00;99.90
54576;DHT22;40472;53.486;14.542;2023-04-03T16:49:45;2.90;99.90
54576;DHT22;40472;53.486;14.542;2023-04-03T16:52:13;2.90;99.90
54576;DHT22;40472;53.486;14.542;2023-04-03T16:54:40;3.00;99.90
54576;DHT22;40472;53.486;14.542;2023-04-03T16:57:07;3.10;99.90
54576;DHT22;40472;53.486;14.542;2023-04-03T16:59:32;3.00;99.90
54576;DHT22;40472;53.486;14.542;2023-04-03T17:01:58;2.90;99.90
54576;DHT22;40472;53.486;14.542;2023-04-03T17:04:24;2.80;99.90
54576;DHT22;40472;53.486;14.542;2023-04-03T17:06:51;2.70;99.90
54576;DHT22;40472;53.486;14.542;2023-04-03T17:09:17;2.70;99.90
54576;DHT22;40472;53.486;14.542;2023-04-03T17:11:42;2.60;99.90
54576;DHT22;40472;53.486;14.542;2023-04-03T17:14:08;2.60;99.90
54576;DHT22;40472;53.486;14.542;2023-04-03T17:16:36;2.60;99.90
54576;DHT22;40472;53.486;14.542;2023-04-03T17:19:03;2.70;99.90
54576;DHT22;40472;53.486;14.542;2023-04-03T17:21:30;2.60;99.90
54576;DHT22;40472;53.486;14.542;2023-04-03T17:23:59;2.60;99.90
54576;DHT22;40472;53.486;14.542;2023-04-03T17:26:26;2.50;99.90
54576;DHT22;40472;53.486;14.542;2023-04-03T17:28:52;2.40;99.90
54576;DHT22;40472;53.486;14.542;2023-04-03T17:31:18;2.30;99.90
54576;DHT22;40472;53.486;14.542;2023-04-03T17:33:44;2.20;99.90
54576;DHT22;40472;53.486;14.542;2023-04-03T17:36:11;2.20;99.90
54576;DHT22;40472;53.486;14.542;2023-04-03T17:38:37;2.00;99.90
54576;DHT22;40472;53.486;14.542;2023-04-03T17:41:05;1.90;99.90
54576;DHT22;40472;53.486;14.542;2023-04-03T17:43:32;1.90;99.90
54576;DHT22;40472;53.486;14.542;2023-04-03T17:46:03;1.80;99.90
54576;DHT22;40472;53.486;14.542;2023-04-03T17:48:30;1.60;99.90
54576;DHT22;40472;53.486;14.542;2023-04-03T17:50:56;1.60;99.90